createdAt,value
2019-06-26T00:00:25.635Z,29.72
2019-06-26T00:02:56.004Z,30.72
2019-06-26T00:05:26.556Z,35.40
2019-06-26T00:07:56.943Z,32.45
2019-06-26T00:10:28.273Z,40.80
2019-06-26T00:12:58.660Z,45.65
2019-06-26T00:15:29.108Z,39.65
2019-06-26T00:17:59.499Z,41.85
2019-06-26T00:20:30.019Z,43.10
2019-06-26T00:23:00.375Z,45.20
2019-06-26T00:29:31.590Z,43.35
2019-06-26T00:32:04.975Z,41.15
2019-06-26T00:34:35.291Z,44.20
2019-06-26T00:37:05.693Z,44.77
2019-06-26T00:39:36.086Z,44.23
2019-06-26T00:42:06.578Z,41.40
2019-06-26T00:44:37.009Z,43.28
2019-06-26T00:47:07.457Z,44.80
2019-06-26T00:49:37.830Z,42.85
2019-06-26T00:52:08.166Z,44.60
2019-06-26T00:54:38.605Z,45.75
2019-06-26T00:57:09.030Z,44.73
2019-06-26T00:59:39.302Z,44.90
2019-06-26T01:02:09.815Z,42.35
2019-06-26T01:04:42.459Z,40.85
2019-06-26T01:07:12.906Z,44.27
2019-06-26T01:09:44.239Z,43.83
2019-06-26T01:12:14.602Z,47.13
2019-06-26T01:14:44.939Z,47.62
2019-06-26T01:17:15.239Z,47.83
2019-06-26T01:19:45.570Z,44.45
2019-06-26T01:22:16.800Z,44.10
2019-06-26T01:24:47.267Z,45.58
2019-06-26T01:27:17.634Z,46.63
2019-06-26T01:29:47.986Z,49.03
2019-06-26T01:32:18.404Z,50.03
2019-06-26T01:34:49.847Z,43.60
2019-06-26T01:37:20.110Z,47.45
2019-06-26T01:39:50.462Z,43.23
2019-06-26T01:42:20.810Z,44.18
2019-06-26T01:44:52.219Z,44.77
2019-06-26T01:47:22.733Z,47.37
2019-06-26T01:49:53.081Z,48.60
2019-06-26T01:52:23.515Z,48.17
2019-06-26T01:54:53.812Z,49.55
2019-06-26T01:57:24.183Z,47.93
2019-06-26T01:59:54.662Z,49.50
2019-06-26T02:02:24.960Z,48.78
2019-06-26T02:04:55.387Z,47.43
2019-06-26T02:07:25.749Z,48.42
2019-06-26T02:09:56.177Z,48.05
2019-06-26T02:12:26.639Z,46.33
2019-06-26T02:14:57.041Z,45.63
2019-06-26T02:17:27.435Z,44.85
2019-06-26T02:19:57.828Z,47.57
2019-06-26T02:22:28.236Z,42.53
2019-06-26T02:24:59.215Z,45.23
2019-06-26T02:27:29.675Z,44.25
2019-06-26T02:30:00.044Z,43.25
2019-06-26T02:32:33.654Z,44.55
2019-06-26T02:35:09.688Z,42.55
2019-06-26T02:37:38.586Z,43.92
2019-06-26T02:40:09.790Z,43.80
2019-06-26T02:42:40.272Z,44.58
2019-06-26T02:45:10.926Z,48.02
2019-06-26T02:47:41.340Z,45.45
2019-06-26T02:50:11.757Z,46.50
2019-06-26T02:52:42.056Z,45.75
2019-06-26T02:55:12.602Z,45.55
2019-06-26T02:57:42.979Z,43.33
2019-06-26T03:00:13.469Z,46.87
2019-06-26T03:02:43.890Z,47.93
2019-06-26T03:05:14.405Z,47.25
2019-06-26T03:07:45.524Z,46.63
2019-06-26T03:10:16.068Z,47.38
2019-06-26T03:12:46.779Z,47.60
2019-06-26T03:15:17.420Z,48.23
2019-06-26T03:17:55.330Z,50.38
2019-06-26T03:20:22.975Z,48.73
2019-06-26T03:22:53.373Z,45.03
2019-06-26T03:25:23.716Z,48.70
2019-06-26T03:27:54.303Z,48.33
2019-06-26T03:30:24.880Z,46.33
2019-06-26T03:32:55.215Z,52.67
2019-06-26T03:35:25.616Z,52.47
2019-06-26T03:37:55.951Z,45.83
2019-06-26T03:40:26.340Z,47.37
2019-06-26T03:42:56.733Z,45.80
2019-06-26T03:45:27.127Z,48.97
2019-06-26T03:47:57.511Z,50.87
2019-06-26T03:50:27.942Z,50.10
2019-06-26T03:52:58.494Z,52.60
2019-06-26T03:55:28.851Z,53.37
2019-06-26T03:57:59.153Z,53.05
2019-06-26T04:00:40.079Z,57.30
2019-06-26T04:03:11.138Z,54.80
2019-06-26T04:05:41.650Z,58.70
2019-06-26T04:08:12.075Z,59.53
2019-06-26T04:10:43.498Z,61.43
2019-06-26T04:13:14.145Z,61.73
2019-06-26T04:15:44.532Z,66.43
2019-06-26T04:18:14.886Z,56.53
2019-06-26T04:20:45.221Z,64.40
2019-06-26T04:23:16.573Z,71.00
2019-06-26T04:25:46.844Z,69.73
2019-06-26T04:28:17.140Z,72.03
2019-06-26T04:30:49.468Z,70.33
2019-06-26T04:33:19.929Z,67.30
2019-06-26T04:35:50.276Z,76.60
2019-06-26T04:38:20.577Z,70.22
2019-06-26T04:40:50.939Z,70.97
2019-06-26T04:43:22.276Z,71.22
2019-06-26T04:45:57.962Z,74.00
2019-06-26T04:48:24.700Z,69.37
2019-06-26T04:50:55.129Z,65.67
2019-06-26T04:53:25.509Z,72.27
2019-06-26T04:55:56.873Z,71.85
2019-06-26T04:58:27.306Z,66.70
2019-06-26T05:00:58.566Z,71.30
2019-06-26T05:03:29.020Z,76.42
2019-06-26T05:05:59.340Z,80.32
2019-06-26T05:08:29.620Z,75.62
2019-06-26T05:11:04.442Z,77.80
2019-06-26T05:13:34.862Z,70.32
2019-06-26T05:16:15.121Z,73.70
2019-06-26T05:18:38.305Z,75.57
2019-06-26T05:21:08.643Z,76.07
2019-06-26T05:23:39.061Z,72.12
2019-06-26T05:26:09.404Z,70.30
2019-06-26T05:28:39.761Z,72.17
2019-06-26T05:31:10.994Z,72.55
2019-06-26T05:33:42.493Z,70.17
2019-06-26T05:36:12.922Z,64.67
2019-06-26T05:38:43.434Z,69.17
2019-06-26T05:41:13.778Z,70.70
2019-06-26T05:43:44.239Z,70.10
2019-06-26T05:46:26.925Z,60.63
2019-06-26T05:48:46.807Z,70.83
2019-06-26T05:51:17.170Z,63.50
2019-06-26T05:53:47.678Z,67.22
2019-06-26T05:56:18.026Z,59.67
2019-06-26T05:58:48.385Z,62.33
2019-06-26T06:01:19.806Z,59.27
2019-06-26T06:03:50.174Z,64.80
2019-06-26T06:06:20.677Z,70.95
2019-06-26T06:08:51.194Z,69.07
2019-06-26T06:11:21.726Z,68.33
2019-06-26T06:13:52.219Z,68.10
2019-06-26T06:16:24.575Z,69.07
2019-06-26T06:18:55.133Z,69.35
2019-06-26T06:21:25.413Z,62.27
2019-06-26T06:23:55.880Z,66.92
2019-06-26T06:26:26.165Z,65.17
2019-06-26T06:28:56.532Z,64.53
2019-06-26T06:31:26.780Z,63.68
2019-06-26T06:33:57.144Z,62.27
2019-06-26T06:36:27.504Z,59.77
2019-06-26T06:38:57.905Z,61.90
2019-06-26T06:41:28.204Z,56.73
2019-06-26T06:43:58.618Z,59.50
2019-06-26T06:46:28.917Z,56.60
2019-06-26T06:48:59.205Z,58.28
2019-06-26T06:51:29.572Z,61.63
2019-06-26T06:53:59.840Z,62.78
2019-06-26T06:56:33.501Z,64.22
2019-06-26T06:59:05.799Z,66.70
2019-06-26T07:01:36.272Z,64.65
2019-06-26T07:04:06.710Z,58.10
2019-06-26T07:06:37.138Z,62.45
2019-06-26T07:09:07.600Z,63.42
2019-06-26T07:11:37.937Z,56.40
2019-06-26T07:14:08.320Z,66.05
2019-06-26T07:16:38.745Z,63.20
2019-06-26T07:19:09.085Z,59.20
2019-06-26T07:21:39.407Z,50.38
2019-06-26T07:24:10.753Z,56.73
2019-06-26T07:26:41.204Z,54.35
2019-06-26T07:29:11.579Z,59.15
2019-06-26T07:31:41.959Z,66.35
2019-06-26T07:34:12.315Z,63.10
2019-06-26T07:36:42.667Z,65.70
2019-06-26T07:39:12.947Z,57.67
2019-06-26T07:41:43.225Z,66.70
2019-06-26T07:44:13.515Z,68.07
2019-06-26T07:46:43.793Z,69.70
2019-06-26T07:49:14.286Z,58.85
2019-06-26T07:51:44.708Z,59.40
2019-06-26T07:54:15.042Z,68.80
2019-06-26T07:56:45.326Z,66.62
2019-06-26T07:59:16.657Z,67.20
2019-06-26T08:01:47.124Z,62.35
2019-06-26T08:04:18.552Z,61.58
2019-06-26T08:06:50.005Z,62.03
2019-06-26T08:09:20.532Z,65.65
2019-06-26T08:11:50.836Z,66.80
2019-06-26T08:14:21.386Z,64.22
2019-06-26T08:16:51.772Z,60.78
2019-06-26T08:19:22.148Z,56.00
2019-06-26T08:21:53.535Z,68.28
2019-06-26T08:24:24.003Z,62.53
2019-06-26T08:26:54.367Z,56.58
2019-06-26T08:29:24.772Z,64.92
2019-06-26T08:31:55.167Z,58.33
2019-06-26T08:34:25.707Z,58.68
2019-06-26T08:36:56.030Z,58.42
2019-06-26T08:39:27.479Z,54.13
2019-06-26T08:41:57.953Z,54.38
2019-06-26T08:44:28.352Z,64.27
2019-06-26T08:46:58.796Z,58.80
2019-06-26T08:49:29.282Z,63.10
2019-06-26T08:52:00.032Z,58.83
2019-06-26T08:54:33.158Z,62.48
2019-06-26T08:57:06.842Z,57.30
2019-06-26T08:59:37.179Z,57.43
2019-06-26T09:02:07.802Z,56.53
2019-06-26T09:04:38.044Z,54.93
2019-06-26T09:07:08.524Z,52.27
2019-06-26T09:09:38.952Z,58.68
2019-06-26T09:12:09.310Z,57.75
2019-06-26T09:14:39.576Z,54.73
2019-06-26T09:17:11.055Z,54.03
2019-06-26T09:19:41.378Z,54.98
2019-06-26T09:22:11.931Z,50.88
2019-06-26T09:24:43.128Z,53.30
2019-06-26T09:27:15.037Z,50.12
2019-06-26T09:29:45.657Z,54.13
2019-06-26T09:32:16.078Z,51.77
2019-06-26T09:34:46.440Z,52.40
2019-06-26T09:37:16.737Z,51.83
2019-06-26T09:39:47.094Z,45.52
2019-06-26T09:42:19.786Z,47.10
2019-06-26T09:44:50.383Z,46.15
2019-06-26T09:47:20.745Z,45.03
2019-06-26T09:49:51.074Z,44.33
2019-06-26T09:52:21.460Z,42.10
2019-06-26T09:54:51.969Z,43.98
2019-06-26T09:57:22.271Z,40.95
2019-06-26T09:59:52.561Z,44.27
2019-06-26T10:02:22.878Z,43.00
2019-06-26T10:04:54.311Z,41.73
2019-06-26T10:07:25.736Z,44.88
2019-06-26T10:09:56.029Z,42.60
2019-06-26T10:12:26.460Z,39.60
2019-06-26T10:14:56.795Z,43.35
2019-06-26T10:17:27.222Z,42.67
2019-06-26T10:19:57.562Z,40.15
2019-06-26T10:22:27.976Z,38.92
2019-06-26T10:24:58.430Z,46.30
2019-06-26T10:27:29.587Z,40.00
2019-06-26T10:30:00.200Z,42.88
2019-06-26T10:32:30.680Z,43.30
2019-06-26T10:35:04.761Z,43.52
2019-06-26T10:37:36.032Z,42.43
2019-06-26T10:40:07.173Z,43.48
2019-06-26T10:42:37.716Z,44.08
2019-06-26T10:45:08.752Z,43.63
2019-06-26T10:47:39.979Z,45.92
2019-06-26T10:50:10.979Z,43.05
2019-06-26T10:52:41.354Z,45.73
2019-06-26T10:55:13.111Z,43.73
2019-06-26T10:57:43.488Z,42.67
2019-06-26T11:00:14.458Z,43.08
2019-06-26T11:02:44.860Z,42.60
2019-06-26T11:05:15.711Z,38.85
2019-06-26T11:07:46.134Z,38.33
2019-06-26T11:10:16.928Z,36.58
2019-06-26T11:12:49.030Z,34.92
2019-06-26T11:15:19.824Z,33.95
2019-06-26T11:17:50.181Z,29.77
2019-06-26T11:20:20.741Z,32.00
2019-06-26T11:22:51.140Z,29.00
2019-06-26T11:25:21.740Z,31.40
2019-06-26T11:27:52.096Z,32.15
2019-06-26T11:30:23.623Z,26.00
2019-06-26T11:32:54.291Z,30.32
2019-06-26T11:35:24.659Z,28.85
2019-06-26T11:37:55.111Z,30.48
2019-06-26T11:40:25.525Z,29.02
2019-06-26T11:42:55.957Z,26.52
2019-06-26T11:45:26.372Z,26.70
2019-06-26T11:47:56.822Z,30.23
2019-06-26T11:50:27.556Z,27.77
2019-06-26T11:52:58.039Z,29.77
2019-06-26T11:55:28.410Z,27.73
2019-06-26T11:57:58.799Z,27.07
2019-06-26T12:00:30.253Z,23.75
2019-06-26T12:03:01.157Z,27.75
2019-06-26T12:05:34.903Z,26.40
2019-06-26T12:08:05.351Z,24.27
2019-06-26T12:10:35.779Z,23.38
2019-06-26T12:13:06.293Z,26.15
2019-06-26T12:15:36.719Z,21.40
2019-06-26T12:18:07.075Z,21.05
2019-06-26T12:20:37.461Z,21.50
2019-06-26T12:23:07.884Z,17.37
2019-06-26T12:25:38.453Z,18.15
2019-06-26T12:28:08.846Z,15.90
2019-06-26T12:30:39.432Z,15.32
2019-06-26T12:33:09.837Z,17.65
2019-06-26T12:35:40.206Z,18.07
2019-06-26T12:38:10.558Z,15.60
2019-06-26T12:40:41.023Z,13.62
2019-06-26T12:43:11.352Z,16.60
2019-06-26T12:45:41.699Z,15.30
2019-06-26T12:48:15.858Z,14.18
2019-06-26T12:50:44.066Z,14.73
2019-06-26T12:53:14.423Z,12.65
2019-06-26T12:55:44.811Z,12.28
2019-06-26T12:58:19.687Z,11.75
2019-06-26T13:00:47.406Z,10.03
2019-06-26T13:03:17.783Z,11.83
2019-06-26T13:05:48.228Z,11.33
2019-06-26T13:08:18.635Z,12.60
2019-06-26T13:10:50.501Z,10.78
2019-06-26T13:13:21.034Z,13.22
2019-06-26T13:15:51.514Z,10.95
2019-06-26T13:18:21.922Z,11.33
2019-06-26T13:20:53.682Z,10.40
2019-06-26T13:23:24.287Z,10.78
2019-06-26T13:25:54.629Z,11.25
2019-06-26T13:28:25.100Z,9.33
2019-06-26T13:30:55.395Z,10.53
2019-06-26T13:33:25.808Z,10.05
2019-06-26T13:35:56.966Z,10.18
2019-06-26T13:38:27.431Z,9.88
2019-06-26T13:40:57.789Z,9.28
2019-06-26T13:43:28.065Z,9.80
2019-06-26T13:45:58.968Z,9.70
2019-06-26T13:48:29.496Z,9.03
2019-06-26T13:51:09.402Z,9.10
2019-06-26T13:53:32.144Z,9.48
2019-06-26T13:56:03.576Z,10.58
2019-06-26T13:58:33.914Z,8.80
2019-06-26T14:01:06.786Z,9.08
2019-06-26T14:03:37.167Z,9.43
2019-06-26T14:06:07.507Z,9.05
2019-06-26T14:08:38.054Z,10.38
2019-06-26T14:11:08.626Z,9.30
2019-06-26T14:13:41.792Z,9.70
2019-06-26T14:16:11.073Z,8.10
2019-06-26T14:18:41.435Z,8.95
2019-06-26T14:21:24.918Z,9.70
2019-06-26T14:23:43.950Z,9.20
2019-06-26T14:26:14.331Z,9.13
2019-06-26T14:28:44.784Z,8.70
2019-06-26T14:31:15.048Z,9.48
2019-06-26T14:33:45.563Z,9.10
2019-06-26T14:36:15.994Z,8.63
2019-06-26T14:38:46.330Z,9.78
2019-06-26T14:41:18.077Z,8.98
2019-06-26T14:43:48.446Z,9.18
2019-06-26T14:46:18.919Z,9.90
2019-06-26T14:48:49.330Z,10.03
2019-06-26T14:51:19.853Z,10.48
2019-06-26T14:53:50.419Z,11.48
2019-06-26T14:56:20.913Z,10.00
2019-06-26T14:58:52.170Z,9.15
2019-06-26T15:01:22.544Z,9.05
2019-06-26T15:03:53.111Z,9.25
2019-06-26T15:06:23.511Z,9.18
2019-06-26T15:08:53.824Z,8.63
2019-06-26T15:11:24.171Z,8.20
2019-06-26T15:13:54.548Z,8.50
2019-06-26T15:16:24.968Z,8.40
2019-06-26T15:18:55.456Z,7.62
2019-06-26T15:21:25.944Z,8.33
2019-06-26T15:23:56.256Z,7.72
2019-06-26T15:26:26.628Z,8.68
2019-06-26T15:28:56.972Z,9.10
2019-06-26T15:31:27.394Z,7.53
2019-06-26T15:33:57.748Z,7.30
2019-06-26T15:36:28.163Z,7.67
2019-06-26T15:38:59.351Z,7.80
2019-06-26T15:41:29.886Z,7.08
2019-06-26T15:44:00.334Z,7.72
2019-06-26T15:46:33.643Z,7.17
2019-06-26T15:49:07.667Z,7.35
2019-06-26T15:51:38.015Z,7.12
2019-06-26T15:54:08.438Z,7.20
2019-06-26T15:56:38.803Z,7.58
2019-06-26T15:59:09.103Z,6.83
2019-06-26T16:01:39.391Z,6.42
2019-06-26T16:04:09.729Z,6.87
2019-06-26T16:06:40.213Z,7.20
2019-06-26T16:09:10.490Z,7.30
2019-06-26T16:11:40.850Z,7.25
2019-06-26T16:14:11.233Z,7.47
2019-06-26T16:16:43.410Z,7.58
2019-06-26T16:19:16.145Z,7.65
2019-06-26T16:21:46.429Z,7.33
2019-06-26T16:24:16.888Z,8.20
2019-06-26T16:26:47.259Z,8.00
2019-06-26T16:29:18.616Z,7.10
2019-06-26T16:31:49.078Z,7.87
2019-06-26T16:34:19.384Z,7.35
2019-06-26T16:36:49.762Z,7.28
2019-06-26T16:39:21.764Z,7.42
2019-06-26T16:41:52.120Z,6.78
2019-06-26T16:44:22.601Z,7.17
2019-06-26T16:46:52.953Z,7.40
2019-06-26T16:49:23.315Z,7.28
2019-06-26T16:51:53.610Z,7.50
2019-06-26T16:54:23.914Z,6.97
2019-06-26T16:56:54.193Z,6.87
2019-06-26T16:59:24.614Z,6.80
2019-06-26T17:01:55.025Z,6.50
2019-06-26T17:04:25.400Z,6.67
2019-06-26T17:06:55.734Z,6.17
2019-06-26T17:09:26.170Z,5.85
2019-06-26T17:11:56.420Z,5.95
2019-06-26T17:14:26.691Z,5.78
2019-06-26T17:16:57.142Z,6.37
2019-06-26T17:19:27.682Z,6.58
2019-06-26T17:21:58.091Z,6.50
2019-06-26T17:24:28.464Z,6.65
2019-06-26T17:26:59.544Z,8.63
2019-06-26T17:29:30.023Z,5.65
2019-06-26T17:32:00.453Z,6.05
2019-06-26T17:34:33.578Z,6.28
2019-06-26T17:37:06.326Z,6.28
2019-06-26T17:39:36.790Z,5.83
2019-06-26T17:42:07.201Z,6.08
2019-06-26T17:44:37.591Z,5.20
2019-06-26T17:47:07.902Z,5.53
2019-06-26T17:49:38.312Z,5.00
2019-06-26T17:52:08.647Z,5.20
2019-06-26T17:54:38.959Z,5.42
2019-06-26T17:57:09.334Z,5.58
2019-06-26T17:59:39.647Z,5.45
2019-06-26T18:02:09.999Z,5.30
2019-06-26T18:04:40.448Z,5.10
2019-06-26T18:07:11.309Z,5.47
2019-06-26T18:09:41.844Z,4.95
2019-06-26T18:12:12.199Z,5.40
2019-06-26T18:14:43.442Z,5.10
2019-06-26T18:17:21.888Z,5.37
2019-06-26T18:19:47.248Z,4.83
2019-06-26T18:22:17.587Z,5.10
2019-06-26T18:24:47.935Z,4.80
2019-06-26T18:27:18.290Z,4.60
2019-06-26T18:29:48.573Z,4.95
2019-06-26T18:32:18.910Z,3.95
2019-06-26T18:34:49.274Z,4.67
2019-06-26T18:37:19.628Z,4.30
2019-06-26T18:39:50.034Z,4.20
2019-06-26T18:42:20.314Z,3.60
2019-06-26T18:44:50.670Z,4.03
2019-06-26T18:47:20.942Z,3.80
2019-06-26T18:49:52.157Z,3.62
2019-06-26T18:52:22.514Z,4.05
2019-06-26T18:54:52.803Z,3.77
2019-06-26T18:57:23.143Z,3.40
2019-06-26T18:59:53.431Z,3.42
2019-06-26T19:02:23.684Z,3.40
2019-06-26T19:04:54.284Z,3.15
2019-06-26T19:07:24.775Z,2.87
2019-06-26T19:09:56.198Z,2.83
2019-06-26T19:12:26.545Z,2.85
2019-06-26T19:14:56.921Z,3.30
2019-06-26T19:17:27.421Z,2.20
2019-06-26T19:19:57.777Z,2.60
2019-06-26T19:22:28.057Z,2.80
2019-06-26T19:24:58.393Z,2.60
2019-06-26T19:27:28.885Z,2.10
2019-06-26T19:29:59.321Z,2.60
2019-06-26T19:32:29.669Z,2.60
2019-06-26T19:35:08.115Z,2.67
2019-06-26T19:37:35.289Z,2.37
2019-06-26T19:40:08.714Z,2.50
2019-06-26T19:42:39.570Z,2.37
2019-06-26T19:45:11.983Z,2.60
2019-06-26T19:47:42.326Z,2.02
2019-06-26T19:50:13.267Z,2.58
2019-06-26T19:52:44.483Z,2.47
2019-06-26T19:55:15.009Z,2.33
2019-06-26T19:57:45.429Z,2.30
2019-06-26T20:00:16.658Z,2.70
2019-06-26T20:02:46.950Z,2.27
2019-06-26T20:05:17.383Z,2.50
2019-06-26T20:07:47.807Z,2.50
2019-06-26T20:10:18.772Z,2.25
2019-06-26T20:12:49.058Z,2.57
2019-06-26T20:15:19.498Z,2.65
2019-06-26T20:17:49.782Z,2.55
2019-06-26T20:20:20.203Z,2.40
2019-06-26T20:22:50.586Z,2.70
2019-06-26T20:25:21.016Z,2.60
2019-06-26T20:27:56.981Z,2.50
2019-06-26T20:30:26.786Z,2.62
2019-06-26T20:32:57.066Z,2.27
2019-06-26T20:35:27.333Z,2.60
2019-06-26T20:37:57.757Z,2.40
2019-06-26T20:40:28.092Z,2.95
2019-06-26T20:42:58.483Z,2.33
2019-06-26T20:45:28.832Z,2.67
2019-06-26T20:47:59.209Z,2.60
2019-06-26T20:50:29.517Z,2.63
2019-06-26T20:52:59.791Z,2.70
2019-06-26T20:55:30.936Z,2.40
2019-06-26T20:58:04.067Z,2.20
2019-06-26T21:00:34.498Z,2.67
2019-06-26T21:03:06.400Z,2.23
2019-06-26T21:05:36.662Z,2.60
2019-06-26T21:08:07.007Z,2.50
2019-06-26T21:10:37.355Z,2.53
2019-06-26T21:13:08.416Z,2.60
2019-06-26T21:15:38.803Z,2.60
2019-06-26T21:18:09.153Z,2.27
2019-06-26T21:20:39.483Z,2.40
2019-06-26T21:23:18.528Z,2.42
2019-06-26T21:25:42.010Z,2.40
2019-06-26T21:28:12.371Z,2.60
2019-06-26T21:30:42.709Z,2.50
2019-06-26T21:33:13.074Z,2.50
2019-06-26T21:35:43.344Z,2.50
2019-06-26T21:38:13.716Z,2.57
2019-06-26T21:40:44.053Z,2.47
2019-06-26T21:43:14.469Z,3.00
2019-06-26T21:45:44.834Z,2.30
2019-06-26T21:48:15.597Z,2.70
2019-06-26T21:50:46.920Z,2.10
2019-06-26T21:53:17.372Z,2.03
2019-06-26T21:56:05.867Z,2.10
2019-06-26T21:58:54.312Z,2.87
2019-06-26T22:01:42.786Z,3.10
2019-06-26T22:04:30.848Z,2.53
2019-06-26T22:07:17.751Z,3.07
2019-06-26T22:09:49.715Z,3.20
2019-06-26T22:12:20.315Z,2.70
2019-06-26T22:14:50.723Z,2.40
2019-06-26T22:17:21.105Z,2.27
2019-06-26T22:19:51.361Z,2.73
2019-06-26T22:22:21.633Z,2.43
2019-06-26T22:24:52.021Z,3.07
2019-06-26T22:27:22.681Z,2.70
2019-06-26T22:29:53.229Z,3.27
2019-06-26T22:32:23.553Z,2.83
2019-06-26T22:34:53.977Z,3.00
2019-06-26T22:37:24.401Z,2.87
2019-06-26T22:39:54.845Z,2.70
2019-06-26T22:42:25.302Z,3.10
2019-06-26T22:44:56.138Z,2.90
2019-06-26T22:47:26.550Z,3.03
2019-06-26T22:49:56.912Z,3.33
2019-06-26T22:52:27.335Z,3.30
2019-06-26T22:54:57.674Z,3.10
2019-06-26T22:57:28.118Z,3.10
2019-06-26T22:59:58.525Z,3.50
2019-06-26T23:02:28.817Z,3.70
2019-06-26T23:04:59.890Z,3.63
2019-06-26T23:07:35.936Z,3.07
2019-06-26T23:10:08.177Z,3.20
2019-06-26T23:12:38.585Z,2.70
2019-06-26T23:15:09.802Z,3.07
2019-06-26T23:17:40.314Z,2.90
2019-06-26T23:20:11.634Z,3.00
2019-06-26T23:22:42.968Z,2.73
2019-06-26T23:25:13.487Z,3.07
2019-06-26T23:27:43.981Z,2.70
2019-06-26T23:30:18.716Z,3.13
2019-06-26T23:32:49.161Z,2.60
2019-06-26T23:35:19.577Z,3.43
2019-06-26T23:37:49.906Z,3.20
2019-06-26T23:40:20.585Z,3.17
2019-06-26T23:42:51.013Z,3.50
2019-06-26T23:45:21.426Z,3.07
2019-06-26T23:47:51.778Z,3.03
2019-06-26T23:50:22.033Z,3.30
2019-06-26T23:52:53.542Z,3.07
2019-06-26T23:55:23.937Z,3.60
2019-06-26T23:57:59.118Z,3.73
